Time;durP1;ratioP1;P1;durP2;ratioP2;P2;SDS_P1;SDS_P2;PMS_P1;PMS_P2;Temp;Humidity;BMP_temperature;BMP_pressure;BME280_temperature;BME280_humidity;BME280_pressure;Samples;Min_cycle;Max_cycle;Signal;HPM_P1;HPM_P2
2023/05/05 00:02:18;;;;;;;5.55;2.42;;;;;;;9.33;50.81;99555.22;7346655;19;20014;-74
2023/05/05 00:04:43;;;;;;;4.88;2.42;;;;;;;9.32;51.68;99564.16;7348339;19;20038;-73
2023/05/05 00:07:07;;;;;;;4.13;2.63;;;;;;;9.26;51.55;99567.19;7341898;19;20007;-70
2023/05/05 00:09:32;;;;;;;4.97;2.42;;;;;;;9.20;51.48;99560.50;7348090;19;20018;-68
2023/05/05 00:11:57;;;;;;;5.45;2.08;;;;;;;9.14;51.96;99568.91;7353055;19;20026;-71
2023/05/05 00:14:21;;;;;;;5.88;2.55;;;;;;;9.07;51.51;99571.09;7350019;19;20366;-70
2023/05/05 00:16:46;;;;;;;11.07;4.68;;;;;;;8.98;52.06;99554.91;7347707;19;20018;-69
2023/05/05 00:19:11;;;;;;;8.10;3.90;;;;;;;8.94;52.53;99564.88;7349215;19;20022;-73
2023/05/05 00:21:35;;;;;;;8.13;3.10;;;;;;;8.92;52.47;99561.47;7350811;19;20015;-71
2023/05/05 00:24:00;;;;;;;7.90;3.67;;;;;;;8.84;52.50;99555.81;7352673;19;20057;-71
2023/05/05 00:26:25;;;;;;;9.20;3.42;;;;;;;8.81;53.07;99563.13;7357638;19;20010;-69
2023/05/05 00:28:51;;;;;;;6.82;3.05;;;;;;;8.78;53.12;99569.53;7356370;19;20509;-71
2023/05/05 00:31:16;;;;;;;3.45;3.05;;;;;;;8.76;53.12;99571.41;7351691;19;20027;-73
2023/05/05 00:33:40;;;;;;;9.18;3.60;;;;;;;8.71;52.93;99563.72;7352438;19;20011;-73
2023/05/05 00:36:05;;;;;;;5.97;3.17;;;;;;;8.69;52.62;99570.13;7353722;19;20007;-71
2023/05/05 00:38:30;;;;;;;10.05;4.05;;;;;;;8.68;53.22;99563.94;7346349;19;20100;-72
2023/05/05 00:40:55;;;;;;;9.80;3.75;;;;;;;8.65;52.96;99563.28;7347709;19;20015;-67
2023/05/05 00:43:19;;;;;;;8.38;3.65;;;;;;;8.63;52.96;99565.19;7349304;19;20090;-69
2023/05/05 00:45:46;;;;;;;8.02;3.60;;;;;;;8.58;53.34;99576.09;7349638;19;20449;-73
2023/05/05 00:48:13;;;;;;;10.60;3.30;;;;;;;8.57;53.11;99576.22;7351293;19;20027;-77
2023/05/05 00:50:41;;;;;;;7.35;4.10;;;;;;;8.55;53.14;99575.47;7347383;19;20015;-74
2023/05/05 00:53:06;;;;;;;7.45;3.25;;;;;;;8.51;53.47;99577.47;7347465;19;20093;-71
2023/05/05 00:55:32;;;;;;;13.50;3.97;;;;;;;8.45;53.72;99574.34;7348058;19;20026;-70
2023/05/05 00:57:57;;;;;;;6.45;3.08;;;;;;;8.45;54.18;99587.63;7348492;19;20697;-73
2023/05/05 01:00:23;;;;;;;6.03;3.55;;;;;;;8.41;54.79;99586.13;7346094;19;20015;-67
2023/05/05 01:02:48;;;;;;;6.70;3.17;;;;;;;8.31;54.75;99589.34;7344652;19;20018;-65
2023/05/05 01:05:14;;;;;;;8.95;3.97;;;;;;;8.28;54.49;99592.16;7346641;19;20019;-67
2023/05/05 01:07:42;;;;;;;10.20;3.55;;;;;;;8.29;54.56;99582.41;7342965;19;20022;-70
2023/05/05 01:10:19;;;;;;;10.27;4.00;;;;;;;8.33;54.88;99574.19;7339996;19;20011;-66
2023/05/05 01:13:10;;;;;;;8.10;4.18;;;;;;;8.33;54.68;99583.94;7341391;19;20331;-67
2023/05/05 01:15:45;;;;;;;10.57;3.88;;;;;;;8.25;54.96;99570.25;7343421;19;20018;-68
2023/05/05 01:18:18;;;;;;;;;;;;;;;8.37;54.05;99575.66;7343240;19;20011;-66
2023/05/05 01:21:22;;;;;;;11.25;4.07;;;;;;;8.29;54.39;99572.63;7340921;19;19922;-64
2023/05/05 01:24:06;;;;;;;10.77;4.03;;;;;;;8.14;55.18;99578.88;7342805;19;20479;-68
2023/05/05 01:26:31;;;;;;;7.18;3.40;;;;;;;8.09;55.10;99574.84;7344506;19;20014;-69
2023/05/05 01:29:09;;;;;;;7.55;3.97;;;;;;;8.12;55.50;99574.66;7344634;19;20021;-66
2023/05/05 01:31:40;;;;;;;5.47;3.60;;;;;;;8.05;55.70;99562.69;7340589;19;20015;-67
2023/05/05 01:34:08;;;;;;;6.57;3.25;;;;;;;7.98;56.26;99560.44;7345764;19;20053;-70
2023/05/05 01:36:41;;;;;;;12.00;4.57;;;;;;;8.01;55.63;99557.56;7342845;19;20023;-65
2023/05/05 01:39:08;;;;;;;8.25;3.90;;;;;;;7.97;55.54;99557.88;7341957;19;20029;-65
2023/05/05 01:41:41;;;;;;;8.02;4.15;;;;;;;7.98;55.69;99565.75;7341451;19;20581;-68
2023/05/05 01:44:09;;;;;;;8.73;3.95;;;;;;;7.94;55.43;99573.97;7341201;19;20026;-69
2023/05/05 01:46:36;;;;;;;7.10;3.50;;;;;;;7.94;55.70;99568.66;7344425;19;20477;-72
2023/05/05 01:49:00;;;;;;;9.88;3.55;;;;;;;7.90;55.70;99564.50;7343854;19;20021;-70
2023/05/05 01:51:26;;;;;;;13.43;4.88;;;;;;;7.89;56.01;99568.13;7337170;19;20014;-70
2023/05/05 01:53:55;;;;;;;10.75;3.70;;;;;;;7.89;56.39;99573.41;7345995;19;20022;-74
2023/05/05 01:56:24;;;;;;;4.88;3.22;;;;;;;7.90;56.18;99575.94;7343870;19;20015;-67
2023/05/05 01:58:49;;;;;;;5.60;3.50;;;;;;;7.85;55.84;99574.53;7341775;19;20084;-71
2023/05/05 02:01:17;;;;;;;12.10;4.95;;;;;;;7.84;55.76;99575.50;7342220;19;20474;-70
2023/05/05 02:03:46;;;;;;;8.35;3.85;;;;;;;7.80;56.52;99580.13;7344511;19;20022;-71
2023/05/05 02:06:11;;;;;;;9.85;4.93;;;;;;;7.79;55.88;99573.09;7341386;19;20023;-71
2023/05/05 02:08:38;;;;;;;10.45;3.58;;;;;;;7.80;56.36;99574.81;7340112;19;20030;-71
2023/05/05 02:11:04;;;;;;;12.43;4.20;;;;;;;7.78;56.06;99575.88;7338304;19;20108;-66
2023/05/05 02:13:31;;;;;;;10.32;4.50;;;;;;;7.76;55.87;99568.00;7340058;19;20019;-74
2023/05/05 02:15:56;;;;;;;14.48;5.28;;;;;;;7.77;55.67;99579.47;7339854;19;20034;-70
2023/05/05 02:18:23;;;;;;;15.30;4.90;;;;;;;7.75;55.68;99578.72;7343525;19;20089;-70
2023/05/05 02:20:48;;;;;;;11.35;5.03;;;;;;;7.67;55.89;99571.22;7339104;19;20607;-71
2023/05/05 02:23:13;;;;;;;8.45;4.05;;;;;;;7.61;55.96;99574.22;7339226;19;20026;-71
2023/05/05 02:25:42;;;;;;;10.27;4.38;;;;;;;7.63;55.77;99575.84;7339565;19;20002;-71
2023/05/05 02:28:41;;;;;;;7.07;3.53;;;;;;;7.75;56.15;99571.59;7343771;19;20022;-72
2023/05/05 02:31:07;;;;;;;9.68;4.07;;;;;;;7.69;55.87;99569.31;7336385;19;20022;-72
2023/05/05 02:33:34;;;;;;;5.85;3.42;;;;;;;7.72;56.08;99571.78;7341342;19;20014;-70
2023/05/05 02:36:08;;;;;;;15.48;5.03;;;;;;;7.77;56.31;99574.16;7339972;19;20026;-69
2023/05/05 02:38:36;;;;;;;6.35;3.67;;;;;;;7.75;55.58;99568.09;7342559;19;20019;-68
2023/05/05 02:41:02;;;;;;;7.70;3.75;;;;;;;7.79;55.36;99569.63;7343981;19;20021;-69
2023/05/05 02:43:30;;;;;;;7.20;3.60;;;;;;;7.81;55.40;99568.56;7342924;19;20037;-70
2023/05/05 02:45:55;;;;;;;6.25;3.33;;;;;;;7.80;55.59;99573.97;7343375;19;20019;-68
2023/05/05 02:48:20;;;;;;;7.13;3.53;;;;;;;7.85;55.07;99566.59;7344004;19;20496;-70
2023/05/05 02:50:46;;;;;;;12.07;4.18;;;;;;;7.87;55.23;99570.00;7343039;19;20500;-68
2023/05/05 02:53:27;;;;;;;5.95;3.20;;;;;;;7.88;54.95;99566.41;7344672;19;20022;-67
2023/05/05 02:56:15;;;;;;;7.88;3.97;;;;;;;7.95;55.28;99570.38;7344288;19;20378;-67
2023/05/05 02:58:58;;;;;;;6.80;3.25;;;;;;;7.93;55.31;99580.22;7341766;19;20473;-67
2023/05/05 03:02:00;;;;;;;6.63;3.83;;;;;;;7.93;55.61;99575.78;7341405;19;20015;-70
2023/05/05 03:04:36;;;;;;;5.60;3.40;;;;;;;7.82;55.44;99567.63;7342307;19;20010;-69
2023/05/05 03:07:09;;;;;;;6.03;3.90;;;;;;;7.83;55.46;99574.63;7342314;19;20014;-69
2023/05/05 03:09:58;;;;;;;9.48;3.65;;;;;;;7.93;55.15;99581.09;7343317;19;20039;-69
2023/05/05 03:12:29;;;;;;;4.97;3.70;;;;;;;7.87;56.10;99580.63;7341441;19;20018;-69
2023/05/05 03:15:10;;;;;;;5.82;4.30;;;;;;;7.90;55.97;99573.31;7339011;19;20018;-68
2023/05/05 03:17:35;;;;;;;9.15;4.57;;;;;;;7.94;55.61;99571.31;7339239;19;20379;-71
2023/05/05 03:20:03;;;;;;;12.20;4.32;;;;;;;7.95;56.00;99578.34;7338982;19;20074;-69
2023/05/05 03:22:30;;;;;;;9.02;4.03;;;;;;;7.89;56.23;99592.00;7339179;19;20039;-71
2023/05/05 03:24:54;;;;;;;5.63;3.83;;;;;;;7.88;56.17;99583.19;7338399;19;20019;-71
2023/05/05 03:27:23;;;;;;;7.22;4.40;;;;;;;7.95;56.08;99584.50;7338813;19;20442;-71
2023/05/05 03:29:49;;;;;;;7.70;4.00;;;;;;;8.11;56.10;99588.88;7338130;19;20014;-71
2023/05/05 03:32:15;;;;;;;11.10;4.07;;;;;;;8.28;55.78;99591.31;7338088;19;20362;-71
2023/05/05 03:34:40;;;;;;;7.85;3.88;;;;;;;8.55;55.20;99594.06;7342642;19;20017;-71
2023/05/05 03:37:05;;;;;;;11.57;4.00;;;;;;;8.82;54.23;99607.38;7342062;19;20011;-70
2023/05/05 03:39:30;;;;;;;10.40;3.72;;;;;;;9.03;53.72;99590.00;7344373;19;20025;-70
2023/05/05 03:41:55;;;;;;;13.45;4.53;;;;;;;9.22;53.15;99590.50;7343313;19;20028;-71
2023/05/05 03:44:20;;;;;;;7.22;3.50;;;;;;;9.36;52.50;99586.94;7349950;19;20032;-71
2023/05/05 03:46:45;;;;;;;8.18;3.33;;;;;;;9.43;52.27;99589.06;7349634;19;20030;-71
2023/05/05 03:49:13;;;;;;;10.48;3.88;;;;;;;9.48;52.27;99591.41;7350886;19;20453;-70
2023/05/05 03:51:39;;;;;;;9.32;4.35;;;;;;;9.48;52.23;99591.41;7346558;19;20019;-70
2023/05/05 03:54:05;;;;;;;6.80;3.75;;;;;;;9.36;52.18;99586.94;7348631;19;20019;-70
2023/05/05 03:56:30;;;;;;;5.70;3.80;;;;;;;9.28;52.35;99591.91;7350015;19;20027;-70
2023/05/05 03:58:54;;;;;;;19.30;4.50;;;;;;;9.25;52.53;99600.09;7348088;19;20334;-71
2023/05/05 04:01:19;;;;;;;5.03;3.05;;;;;;;9.21;52.33;99596.78;7348063;19;20003;-70
2023/05/05 04:03:44;;;;;;;4.95;3.00;;;;;;;9.20;52.76;99597.75;7348683;19;20019;-70
2023/05/05 04:06:09;;;;;;;5.60;2.90;;;;;;;9.22;52.55;99600.28;7345387;19;20025;-73
2023/05/05 04:08:33;;;;;;;5.03;2.97;;;;;;;9.18;52.29;99598.78;7345904;19;20498;-71
2023/05/05 04:11:01;;;;;;;4.63;2.72;;;;;;;9.28;51.71;99608.72;7343947;19;20091;-71
2023/05/05 04:13:26;;;;;;;4.88;2.70;;;;;;;9.38;52.15;99611.59;7349207;19;20014;-71
2023/05/05 04:15:52;;;;;;;5.03;2.75;;;;;;;9.44;51.64;99616.53;7349638;19;20352;-70
2023/05/05 04:18:17;;;;;;;5.70;2.78;;;;;;;9.27;51.65;99609.66;7348166;19;20015;-69
2023/05/05 04:20:42;;;;;;;4.88;2.78;;;;;;;9.04;51.93;99623.63;7351459;19;20018;-70
2023/05/05 04:23:08;;;;;;;3.58;2.45;;;;;;;8.87;52.70;99622.09;7348254;19;20026;-68
2023/05/05 04:25:33;;;;;;;4.65;2.60;;;;;;;9.00;52.78;99633.63;7346624;19;20478;-69
2023/05/05 04:27:58;;;;;;;5.25;2.15;;;;;;;9.23;51.91;99623.28;7347186;19;20489;-76
2023/05/05 04:30:23;;;;;;;6.13;2.78;;;;;;;9.63;51.45;99619.66;7348052;19;20053;-70
2023/05/05 04:32:48;;;;;;;2.83;2.53;;;;;;;10.03;50.35;99632.91;7345917;19;20018;-69
2023/05/05 04:35:12;;;;;;;12.07;2.45;;;;;;;10.44;49.50;99636.19;7348206;19;20051;-70
2023/05/05 04:37:40;;;;;;;3.42;2.65;;;;;;;10.98;48.77;99637.66;7345321;19;20118;-67
2023/05/05 04:40:06;;;;;;;3.33;2.33;;;;;;;11.49;47.78;99630.28;7344761;19;20017;-70
2023/05/05 04:42:32;;;;;;;5.03;2.97;;;;;;;11.94;46.35;99626.81;7345107;19;20018;-70
2023/05/05 04:44:58;;;;;;;6.13;2.53;;;;;;;12.43;45.38;99632.78;7345517;19;20501;-69
2023/05/05 04:47:22;;;;;;;3.88;2.33;;;;;;;12.85;44.26;99624.00;7351852;19;20528;-71
2023/05/05 04:49:47;;;;;;;3.50;2.40;;;;;;;13.19;43.40;99632.00;7355822;19;20025;-70
2023/05/05 04:52:14;;;;;;;3.05;2.03;;;;;;;13.35;42.57;99633.25;7344597;19;20641;-70
2023/05/05 04:54:39;;;;;;;4.70;2.75;;;;;;;13.52;42.30;99634.53;7344008;19;20018;-70
2023/05/05 04:57:04;;;;;;;8.02;2.80;;;;;;;13.70;42.44;99632.13;7343564;19;20011;-69
2023/05/05 04:59:28;;;;;;;4.50;2.42;;;;;;;13.95;42.26;99630.91;7343877;19;20010;-70
2023/05/05 05:01:53;;;;;;;2.83;2.38;;;;;;;14.21;41.01;99631.34;7342245;19;20710;-70
2023/05/05 05:04:17;;;;;;;6.70;2.97;;;;;;;14.61;40.29;99628.72;7343515;19;20424;-70
2023/05/05 05:06:42;;;;;;;8.75;3.22;;;;;;;14.68;39.51;99625.34;7344414;19;20019;-70
2023/05/05 05:09:07;;;;;;;4.18;1.88;;;;;;;14.59;40.49;99630.69;7347339;19;20114;-69
2023/05/05 05:11:31;;;;;;;6.82;1.98;;;;;;;14.34;40.35;99634.63;7342585;19;20015;-69
2023/05/05 05:13:56;;;;;;;2.22;2.00;;;;;;;14.30;40.92;99634.06;7345276;19;20039;-70
2023/05/05 05:16:20;;;;;;;2.85;2.13;;;;;;;14.30;41.16;99644.81;7342369;19;20625;-71
2023/05/05 05:18:45;;;;;;;4.13;2.20;;;;;;;14.57;40.83;99646.06;7342216;19;20014;-70
2023/05/05 05:21:10;;;;;;;3.72;1.92;;;;;;;14.93;40.65;99640.13;7343476;19;20015;-70
2023/05/05 05:23:35;;;;;;;3.35;2.25;;;;;;;15.20;39.94;99634.97;7345386;19;20805;-71
2023/05/05 05:26:00;;;;;;;3.90;1.80;;;;;;;15.55;38.97;99630.94;7342932;19;20344;-70
2023/05/05 05:28:24;;;;;;;4.25;2.15;;;;;;;15.90;38.99;99636.56;7342403;19;20006;-70
2023/05/05 05:30:55;;;;;;;5.72;2.92;;;;;;;15.83;38.55;99648.03;7340365;19;20017;-70
2023/05/05 05:33:19;;;;;;;6.05;2.55;;;;;;;15.57;38.67;99637.88;7342185;19;20677;-71
2023/05/05 05:35:45;;;;;;;5.07;2.47;;;;;;;15.31;39.41;99646.56;7342432;19;20109;-70
2023/05/05 05:38:10;;;;;;;7.95;2.17;;;;;;;15.12;39.82;99640.16;7341686;19;20014;-70
2023/05/05 05:40:35;;;;;;;4.05;2.50;;;;;;;14.80;40.00;99640.38;7342360;19;20098;-69
2023/05/05 05:43:01;;;;;;;11.35;3.17;;;;;;;14.26;40.42;99645.19;7341636;19;20010;-71
2023/05/05 05:45:26;;;;;;;4.20;2.22;;;;;;;13.70;41.72;99651.75;7341527;19;20014;-71
2023/05/05 05:47:51;;;;;;;4.13;2.58;;;;;;;13.31;42.46;99637.19;7344534;19;20047;-70
2023/05/05 05:50:16;;;;;;;3.55;2.10;;;;;;;13.06;43.01;99648.16;7340427;19;20011;-70
2023/05/05 05:52:40;;;;;;;9.70;2.47;;;;;;;12.85;42.95;99644.56;7341913;19;20343;-72
2023/05/05 05:55:06;;;;;;;6.95;2.80;;;;;;;12.68;43.36;99649.44;7344051;19;20039;-71
2023/05/05 05:57:32;;;;;;;5.53;2.35;;;;;;;12.60;43.58;99651.88;7342792;19;20517;-69
2023/05/05 05:59:56;;;;;;;5.35;2.25;;;;;;;12.54;43.41;99654.16;7343523;19;20395;-70
2023/05/05 06:02:23;;;;;;;6.60;2.42;;;;;;;12.42;43.63;99653.31;7339904;19;20799;-71
2023/05/05 06:04:48;;;;;;;6.80;2.17;;;;;;;12.22;44.25;99646.00;7341237;19;20481;-72
2023/05/05 06:07:13;;;;;;;7.55;2.20;;;;;;;11.89;44.50;99642.31;7340015;19;20018;-72
2023/05/05 06:09:38;;;;;;;7.05;3.10;;;;;;;11.52;45.42;99648.72;7342247;19;20015;-72
2023/05/05 06:12:02;;;;;;;7.00;2.47;;;;;;;11.21;45.82;99656.34;7342275;19;20090;-72
2023/05/05 06:14:27;;;;;;;2.97;1.83;;;;;;;10.91;46.26;99651.44;7340567;19;20047;-71
2023/05/05 06:16:52;;;;;;;4.88;2.28;;;;;;;10.76;46.76;99657.03;7341820;19;20015;-71
2023/05/05 06:19:20;;;;;;;5.57;2.55;;;;;;;10.71;47.30;99659.19;7340723;19;20022;-72
2023/05/05 06:21:45;;;;;;;3.83;2.08;;;;;;;10.79;47.42;99656.81;7341383;19;20018;-71
2023/05/05 06:24:10;;;;;;;9.63;2.95;;;;;;;10.91;46.99;99656.78;7340785;19;20033;-73
2023/05/05 06:26:34;;;;;;;5.43;2.58;;;;;;;11.12;47.05;99656.19;7342979;19;20040;-71
2023/05/05 06:28:59;;;;;;;10.68;2.13;;;;;;;11.32;46.32;99655.56;7344824;19;20019;-71
2023/05/05 06:31:23;;;;;;;5.63;2.70;;;;;;;11.70;45.51;99650.00;7344541;19;20019;-72
2023/05/05 06:33:48;;;;;;;9.05;4.05;;;;;;;12.29;44.53;99660.63;7339724;19;20026;-70
2023/05/05 06:36:13;;;;;;;10.07;2.88;;;;;;;12.81;43.07;99653.81;7344249;19;20018;-71
2023/05/05 06:38:37;;;;;;;5.70;2.60;;;;;;;13.15;42.34;99655.47;7341590;19;20060;-70
2023/05/05 06:41:02;;;;;;;3.22;2.05;;;;;;;13.37;42.24;99663.44;7341429;19;20011;-70
2023/05/05 06:43:28;;;;;;;5.60;2.20;;;;;;;14.49;41.08;99673.56;7343790;19;20010;-72
2023/05/05 06:45:56;;;;;;;7.35;2.20;;;;;;;16.45;38.24;99663.63;7341404;19;20010;-71
2023/05/05 06:48:21;;;;;;;9.80;2.95;;;;;;;17.15;35.72;99653.28;7342140;19;20014;-72
2023/05/05 06:50:45;;;;;;;6.55;2.28;;;;;;;17.27;35.19;99660.13;7340459;19;20021;-71
2023/05/05 06:53:10;;;;;;;4.70;2.80;;;;;;;16.82;35.25;99660.09;7341593;19;20018;-71
2023/05/05 06:55:34;;;;;;;7.18;3.05;;;;;;;16.91;35.69;99648.44;7339888;19;20018;-71
2023/05/05 06:57:59;;;;;;;6.50;2.17;;;;;;;17.01;35.73;99655.47;7340703;19;20019;-72
2023/05/05 07:00:25;;;;;;;5.55;3.13;;;;;;;17.12;35.91;99658.97;7341293;19;20094;-73
2023/05/05 07:02:50;;;;;;;11.55;3.05;;;;;;;16.90;35.91;99668.28;7339938;19;20328;-71
2023/05/05 07:05:15;;;;;;;9.40;2.72;;;;;;;16.56;36.37;99665.28;7341305;19;20402;-71
2023/05/05 07:08:00;;;;;;;7.97;2.90;;;;;;;16.43;37.01;99675.53;7339530;19;20026;-72
2023/05/05 07:10:26;;;;;;;6.10;2.60;;;;;;;15.66;37.63;99671.09;7337915;19;20348;-72
2023/05/05 07:12:53;;;;;;;4.32;2.50;;;;;;;15.10;38.19;99676.22;7340365;19;20462;-70
2023/05/05 07:15:20;;;;;;;7.95;3.58;;;;;;;14.51;38.62;99679.66;7340558;19;20014;-69
2023/05/05 07:17:44;;;;;;;6.10;3.03;;;;;;;14.03;40.00;99679.34;7341958;19;20036;-69
2023/05/05 07:20:09;;;;;;;6.97;2.30;;;;;;;13.61;40.02;99687.34;7341393;19;20050;-70
2023/05/05 07:22:34;;;;;;;8.43;2.70;;;;;;;13.25;40.99;99687.69;7342223;19;20014;-70
2023/05/05 07:24:59;;;;;;;7.30;2.65;;;;;;;13.10;41.30;99698.63;7339971;19;20014;-70
2023/05/05 07:27:24;;;;;;;4.13;2.20;;;;;;;13.12;41.12;99693.16;7340491;19;20059;-72
2023/05/05 07:29:49;;;;;;;6.00;2.75;;;;;;;13.28;41.65;99690.13;7339569;19;20684;-72
2023/05/05 07:32:13;;;;;;;9.63;2.28;;;;;;;13.34;40.86;99701.16;7340283;19;20015;-70
2023/05/05 07:34:39;;;;;;;10.23;2.78;;;;;;;13.13;41.22;99694.84;7339848;19;20021;-72
2023/05/05 07:37:04;;;;;;;16.58;3.88;;;;;;;12.80;41.96;99705.59;7338102;19;20027;-72
2023/05/05 07:39:28;;;;;;;8.00;2.85;;;;;;;12.42;42.61;99711.28;7338257;19;20002;-71
2023/05/05 07:41:53;;;;;;;5.10;2.50;;;;;;;11.99;43.71;99715.44;7340209;19;20015;-72
2023/05/05 07:44:20;;;;;;;7.75;2.88;;;;;;;11.77;45.02;99714.50;7342399;19;20026;-71
2023/05/05 07:46:44;;;;;;;19.50;3.40;;;;;;;11.53;45.39;99718.03;7338989;19;20062;-71
2023/05/05 07:49:09;;;;;;;11.27;2.70;;;;;;;11.33;45.25;99726.66;7337777;19;20003;-72
2023/05/05 07:51:34;;;;;;;4.47;2.35;;;;;;;11.07;45.34;99730.34;7338311;19;20011;-71
2023/05/05 07:53:59;;;;;;;7.60;3.08;;;;;;;10.84;45.94;99732.00;7338150;19;20014;-70
2023/05/05 07:56:23;;;;;;;5.00;2.05;;;;;;;10.66;46.00;99734.16;7339431;19;20021;-72
2023/05/05 07:58:49;;;;;;;11.43;3.63;;;;;;;10.55;46.55;99742.06;7337788;19;20513;-71
2023/05/05 08:01:14;;;;;;;7.65;3.03;;;;;;;10.45;46.88;99736.53;7339497;19;20019;-70
2023/05/05 08:03:39;;;;;;;7.07;3.13;;;;;;;10.37;46.68;99738.00;7339401;19;20019;-69
2023/05/05 08:06:08;;;;;;;6.45;3.28;;;;;;;10.34;47.20;99755.06;7337563;19;20744;-71
2023/05/05 08:08:33;;;;;;;6.03;2.92;;;;;;;10.46;47.22;99750.69;7339346;19;20011;-70
2023/05/05 08:10:57;;;;;;;4.63;2.50;;;;;;;10.66;46.90;99762.63;7336527;19;20018;-70
2023/05/05 08:13:23;;;;;;;7.45;2.88;;;;;;;10.68;46.21;99766.06;7339315;19;20079;-70
2023/05/05 08:15:51;;;;;;;11.60;2.50;;;;;;;10.63;46.28;99769.03;7339400;19;20027;-71
2023/05/05 08:18:18;;;;;;;8.65;3.25;;;;;;;10.48;46.59;99770.97;7339495;19;20779;-69
2023/05/05 08:20:42;;;;;;;2.55;2.25;;;;;;;10.27;47.26;99756.41;7340810;19;20762;-69
2023/05/05 08:23:07;;;;;;;6.75;2.45;;;;;;;10.22;48.02;99758.56;7339146;19;20380;-70
2023/05/05 08:25:32;;;;;;;7.65;2.97;;;;;;;10.22;47.67;99765.69;7339001;19;20078;-69
2023/05/05 08:27:56;;;;;;;7.00;3.08;;;;;;;10.01;48.19;99760.84;7338877;19;20494;-69
2023/05/05 08:30:31;;;;;;;;;;;;;;;10.31;46.99;99779.25;7343063;19;20544;-69
2023/05/05 08:32:55;;;;;;;;;;;;;;;10.32;46.72;99770.28;7345782;19;20285;-70
2023/05/05 08:35:20;;;;;;;10.43;3.57;;;;;;;9.98;48.30;99784.16;7347510;19;19945;-70
2023/05/05 08:37:45;;;;;;;15.98;3.08;;;;;;;9.80;49.52;99784.44;7347243;19;20140;-70
2023/05/05 08:40:15;;;;;;;14.68;3.47;;;;;;;9.68;49.84;99789.72;7346216;19;20093;-71
2023/05/05 08:42:40;;;;;;;6.50;4.13;;;;;;;9.53;49.72;99788.03;7348254;19;20043;-73
2023/05/05 08:45:07;;;;;;;10.52;2.83;;;;;;;9.45;50.29;99796.53;7348800;19;20035;-69
2023/05/05 08:47:32;;;;;;;4.78;2.90;;;;;;;9.46;50.10;99799.09;7347241;19;20067;-69
2023/05/05 08:49:58;;;;;;;16.30;4.65;;;;;;;9.52;50.20;99802.28;7351399;19;20478;-74
2023/05/05 08:52:26;;;;;;;5.20;3.25;;;;;;;9.51;50.31;99804.09;7346977;19;20373;-75
2023/05/05 08:55:01;;;;;;;4.60;3.47;;;;;;;9.50;50.17;99789.09;7347211;19;20342;-71
2023/05/05 08:57:39;;;;;;;9.60;4.15;;;;;;;9.58;49.89;99793.94;7350948;19;20049;-72
2023/05/05 09:00:06;;;;;;;8.10;3.70;;;;;;;9.55;49.15;99797.63;7348662;19;20095;-72
2023/05/05 09:02:31;;;;;;;3.05;2.58;;;;;;;9.60;48.77;99792.84;7342198;19;20023;-72
2023/05/05 09:04:56;;;;;;;7.97;4.07;;;;;;;9.56;48.60;99791.38;7345288;19;20021;-71
2023/05/05 09:07:22;;;;;;;5.97;3.78;;;;;;;9.48;48.73;99804.28;7348131;19;20010;-72
2023/05/05 09:09:48;;;;;;;6.22;3.80;;;;;;;9.48;48.47;99801.63;7347815;19;20473;-70
2023/05/05 09:12:18;;;;;;;5.32;3.40;;;;;;;9.33;48.64;99807.94;7349208;19;20553;-71
2023/05/05 09:14:46;;;;;;;5.47;2.88;;;;;;;9.28;49.16;99805.56;7343148;19;20019;-72
2023/05/05 09:17:24;;;;;;;8.02;3.13;;;;;;;9.35;49.06;99816.69;7343510;19;20078;-72
2023/05/05 09:20:03;;;;;;;4.40;3.30;;;;;;;9.35;49.11;99808.72;7342850;19;20019;-73
2023/05/05 09:22:38;;;;;;;3.80;2.85;;;;;;;9.26;49.43;99807.47;7342904;19;20015;-71
2023/05/05 09:25:05;;;;;;;4.45;2.95;;;;;;;9.06;49.43;99821.16;7344775;19;20018;-72
2023/05/05 09:27:35;;;;;;;6.95;3.08;;;;;;;9.04;49.94;99813.28;7344121;19;20014;-71
2023/05/05 09:29:59;;;;;;;4.57;3.10;;;;;;;8.97;50.00;99805.78;7342781;19;20014;-71
2023/05/05 09:32:24;;;;;;;4.38;2.67;;;;;;;9.10;50.07;99798.75;7344349;19;20026;-71
2023/05/05 09:35:00;;;;;;;7.07;3.15;;;;;;;9.47;49.87;99813.25;7344343;19;20477;-71
2023/05/05 09:37:34;;;;;;;4.53;2.50;;;;;;;9.87;48.84;99810.66;7343912;19;20031;-72
2023/05/05 09:40:00;;;;;;;4.85;2.50;;;;;;;10.19;47.62;99806.72;7343812;19;20295;-72
2023/05/05 09:42:24;;;;;;;8.20;2.67;;;;;;;10.54;46.87;99807.84;7342171;19;20030;-72
2023/05/05 09:44:51;;;;;;;4.57;2.92;;;;;;;11.05;45.94;99807.84;7347743;19;20011;-71
2023/05/05 09:47:17;;;;;;;4.88;2.83;;;;;;;11.59;45.12;99810.19;7344616;19;20026;-70
2023/05/05 09:49:42;;;;;;;3.35;2.90;;;;;;;12.15;43.68;99807.81;7342995;19;20019;-75
2023/05/05 09:52:16;;;;;;;2.40;2.20;;;;;;;12.44;42.18;99803.78;7343340;19;20034;-71
2023/05/05 09:54:42;;;;;;;6.40;2.67;;;;;;;12.34;42.16;99797.44;7343696;19;20014;-70
2023/05/05 09:57:07;;;;;;;5.22;2.67;;;;;;;12.20;42.58;99802.97;7343208;19;20469;-73
2023/05/05 09:59:32;;;;;;;6.13;2.60;;;;;;;11.85;42.67;99798.44;7341688;19;20469;-71
2023/05/05 10:02:12;;;;;;;5.15;2.83;;;;;;;11.73;43.44;99810.03;7340333;19;20019;-72
2023/05/05 10:04:38;;;;;;;2.38;2.10;;;;;;;11.12;44.30;99816.25;7343609;19;20496;-71
2023/05/05 10:07:03;;;;;;;4.28;2.63;;;;;;;10.67;44.44;99817.66;7343275;19;20477;-71
2023/05/05 10:09:30;;;;;;;3.22;2.50;;;;;;;10.43;45.07;99821.06;7343047;19;20388;-70
2023/05/05 10:11:56;;;;;;;5.18;2.63;;;;;;;10.25;45.21;99824.97;7339404;19;20022;-72
2023/05/05 10:14:23;;;;;;;5.20;2.78;;;;;;;10.14;46.01;99827.47;7341538;19;20018;-72
2023/05/05 10:16:50;;;;;;;5.35;2.30;;;;;;;10.08;46.05;99820.72;7342565;19;20014;-72
2023/05/05 10:19:17;;;;;;;3.80;2.67;;;;;;;10.00;45.70;99815.06;7340829;19;20026;-70
2023/05/05 10:21:55;;;;;;;7.13;3.63;;;;;;;9.87;46.30;99810.66;7342523;19;20018;-71
2023/05/05 10:24:45;;;;;;;8.90;3.05;;;;;;;9.86;46.50;99817.78;7341198;19;20045;-67
2023/05/05 10:27:25;;;;;;;6.03;3.00;;;;;;;9.74;46.44;99810.59;7341441;19;20025;-69
2023/05/05 10:30:03;;;;;;;8.50;3.55;;;;;;;9.78;46.21;99820.94;7343714;19;20049;-67
2023/05/05 10:32:52;;;;;;;7.30;2.80;;;;;;;9.88;44.71;99815.03;7340395;19;20399;-69
2023/05/05 10:35:22;;;;;;;6.95;3.97;;;;;;;9.98;44.94;99813.44;7340469;19;20010;-68
2023/05/05 10:37:47;;;;;;;8.15;3.67;;;;;;;10.28;43.25;99815.91;7345592;19;20014;-68
2023/05/05 10:40:13;;;;;;;10.48;3.25;;;;;;;10.53;42.35;99811.47;7342022;19;20536;-68
2023/05/05 10:42:41;;;;;;;10.38;2.92;;;;;;;10.94;41.84;99817.56;7340637;19;20053;-68
2023/05/05 10:45:07;;;;;;;9.25;2.92;;;;;;;11.42;42.14;99816.72;7342033;19;20023;-69
2023/05/05 10:47:33;;;;;;;6.22;2.97;;;;;;;11.96;40.68;99811.03;7342538;19;20018;-67
2023/05/05 10:50:16;;;;;;;4.38;2.65;;;;;;;12.38;39.71;99814.09;7339859;19;20023;-70
2023/05/05 10:53:10;;;;;;;3.22;2.47;;;;;;;12.18;39.88;99811.13;7341003;19;20033;-70
2023/05/05 10:55:45;;;;;;;3.50;2.85;;;;;;;11.78;40.87;99823.06;7344787;19;20018;-71
2023/05/05 10:58:32;;;;;;;6.68;2.45;;;;;;;11.46;41.31;99820.03;7341403;19;20018;-71
2023/05/05 11:00:57;;;;;;;11.77;3.47;;;;;;;10.83;41.86;99816.50;7340796;19;20021;-71
2023/05/05 11:03:22;;;;;;;3.42;2.50;;;;;;;10.58;42.43;99823.63;7340896;19;20521;-71
2023/05/05 11:06:02;;;;;;;4.40;2.45;;;;;;;10.57;42.82;99819.25;7338932;19;20029;-72
2023/05/05 11:08:27;;;;;;;4.53;2.42;;;;;;;10.24;43.28;99822.41;7349488;19;20031;-73
2023/05/05 11:10:52;;;;;;;5.68;2.30;;;;;;;10.07;43.59;99824.34;7341607;19;20466;-73
2023/05/05 11:13:18;;;;;;;5.43;3.15;;;;;;;9.94;44.69;99827.91;7343646;19;20489;-72
2023/05/05 11:15:43;;;;;;;6.80;3.55;;;;;;;9.79;44.98;99829.78;7345566;19;20510;-72
2023/05/05 11:18:26;;;;;;;7.50;3.28;;;;;;;9.78;44.74;99823.63;7344645;19;20478;-65
2023/05/05 11:20:51;;;;;;;3.83;2.85;;;;;;;9.45;45.17;99826.66;7344587;19;20078;-73
2023/05/05 11:23:19;;;;;;;4.70;3.05;;;;;;;9.31;45.98;99823.16;7342962;19;20051;-67
2023/05/05 11:25:44;;;;;;;5.93;3.72;;;;;;;9.31;45.98;99812.50;7340559;19;20033;-68
2023/05/05 11:28:19;;;;;;;4.07;2.80;;;;;;;9.49;45.53;99816.63;7338819;19;20093;-69
2023/05/05 11:30:53;;;;;;;8.43;3.42;;;;;;;9.59;44.95;99815.13;7343432;19;20018;-69
2023/05/05 11:33:37;;;;;;;4.45;3.10;;;;;;;9.62;45.50;99817.56;7339104;19;20018;-70
2023/05/05 11:36:10;;;;;;;15.00;4.03;;;;;;;9.60;45.09;99819.47;7343410;19;20018;-75
2023/05/05 11:39:03;;;;;;;3.22;2.38;;;;;;;9.58;45.11;99812.56;7344568;19;20082;-72
2023/05/05 11:41:32;;;;;;;3.72;2.13;;;;;;;9.56;43.73;99814.47;7340104;19;20100;-74